sensor_id;sensor_type;location;lat;lon;timestamp;temperature;humidity
24772;DHT22;12870;52.274;9.754;2023-06-01T00:00:38;12.40;99.90
24772;DHT22;12870;52.274;9.754;2023-06-01T00:03:05;12.40;99.90
24772;DHT22;12870;52.274;9.754;2023-06-01T00:05:30;12.40;99.90
24772;DHT22;12870;52.274;9.754;2023-06-01T00:07:56;12.50;99.90
24772;DHT22;12870;52.274;9.754;2023-06-01T00:10:22;12.50;99.90
24772;DHT22;12870;52.274;9.754;2023-06-01T00:12:47;12.50;99.90
24772;DHT22;12870;52.274;9.754;2023-06-01T00:15:13;12.40;99.90
24772;DHT22;12870;52.274;9.754;2023-06-01T00:17:39;12.30;99.90
24772;DHT22;12870;52.274;9.754;2023-06-01T00:20:05;12.20;99.90
24772;DHT22;12870;52.274;9.754;2023-06-01T00:22:36;11.90;99.90
24772;DHT22;12870;52.274;9.754;2023-06-01T00:25:06;11.70;99.90
24772;DHT22;12870;52.274;9.754;2023-06-01T00:27:32;11.80;99.90
24772;DHT22;12870;52.274;9.754;2023-06-01T00:29:57;11.70;99.90
24772;DHT22;12870;52.274;9.754;2023-06-01T00:32:23;11.60;99.90
24772;DHT22;12870;52.274;9.754;2023-06-01T00:34:48;11.60;99.90
24772;DHT22;12870;52.274;9.754;2023-06-01T00:37:14;11.60;99.90
24772;DHT22;12870;52.274;9.754;2023-06-01T00:39:40;11.50;99.90
24772;DHT22;12870;52.274;9.754;2023-06-01T00:42:06;11.50;99.90
24772;DHT22;12870;52.274;9.754;2023-06-01T00:44:31;11.50;99.90
24772;DHT22;12870;52.274;9.754;2023-06-01T00:46:57;11.40;99.90
24772;DHT22;12870;52.274;9.754;2023-06-01T00:49:25;11.40;99.90
24772;DHT22;12870;52.274;9.754;2023-06-01T00:51:51;11.40;99.90
24772;DHT22;12870;52.274;9.754;2023-06-01T00:54:17;11.50;99.90
24772;DHT22;12870;52.274;9.754;2023-06-01T00:56:43;11.50;99.90
24772;DHT22;12870;52.274;9.754;2023-06-01T00:59:09;11.60;99.90
24772;DHT22;12870;52.274;9.754;2023-06-01T01:01:35;11.60;99.90
24772;DHT22;12870;52.274;9.754;2023-06-01T01:04:02;11.60;99.90
24772;DHT22;12870;52.274;9.754;2023-06-01T01:07:02;11.70;99.90
24772;DHT22;12870;52.274;9.754;2023-06-01T01:09:39;11.80;99.90
24772;DHT22;12870;52.274;9.754;2023-06-01T01:12:14;11.90;99.90
24772;DHT22;12870;52.274;9.754;2023-06-01T01:14:53;12.00;99.90
24772;DHT22;12870;52.274;9.754;2023-06-01T01:17:29;12.10;99.90
24772;DHT22;12870;52.274;9.754;2023-06-01T01:25:52;12.00;99.90
24772;DHT22;12870;52.274;9.754;2023-06-01T01:29:29;11.90;99.90
24772;DHT22;12870;52.274;9.754;2023-06-01T01:31:24;11.90;99.90
24772;DHT22;12870;52.274;9.754;2023-06-01T01:33:53;12.10;99.90
24772;DHT22;12870;52.274;9.754;2023-06-01T01:36:19;12.10;99.90
24772;DHT22;12870;52.274;9.754;2023-06-01T01:38:45;12.20;99.90
24772;DHT22;12870;52.274;9.754;2023-06-01T01:41:12;12.10;99.90
24772;DHT22;12870;52.274;9.754;2023-06-01T01:43:38;12.20;99.90
24772;DHT22;12870;52.274;9.754;2023-06-01T01:46:18;12.10;99.90
24772;DHT22;12870;52.274;9.754;2023-06-01T01:51:40;12.00;99.90
24772;DHT22;12870;52.274;9.754;2023-06-01T01:54:10;12.00;99.90
24772;DHT22;12870;52.274;9.754;2023-06-01T01:56:36;11.90;99.90
24772;DHT22;12870;52.274;9.754;2023-06-01T01:59:04;12.00;99.90
24772;DHT22;12870;52.274;9.754;2023-06-01T02:01:31;12.00;99.90
24772;DHT22;12870;52.274;9.754;2023-06-01T02:03:59;12.00;99.90
24772;DHT22;12870;52.274;9.754;2023-06-01T02:06:25;12.10;99.90
24772;DHT22;12870;52.274;9.754;2023-06-01T02:08:50;12.00;99.90
24772;DHT22;12870;52.274;9.754;2023-06-01T02:11:16;12.00;99.90
24772;DHT22;12870;52.274;9.754;2023-06-01T02:13:42;12.00;99.90
24772;DHT22;12870;52.274;9.754;2023-06-01T02:16:07;12.10;99.90
24772;DHT22;12870;52.274;9.754;2023-06-01T02:18:33;12.10;99.90
24772;DHT22;12870;52.274;9.754;2023-06-01T02:20:58;12.20;99.90
24772;DHT22;12870;52.274;9.754;2023-06-01T02:23:24;12.00;99.90
24772;DHT22;12870;52.274;9.754;2023-06-01T02:25:50;12.00;99.90
24772;DHT22;12870;52.274;9.754;2023-06-01T02:28:17;12.10;99.90
24772;DHT22;12870;52.274;9.754;2023-06-01T02:30:42;12.10;99.90
24772;DHT22;12870;52.274;9.754;2023-06-01T02:33:08;11.90;99.90
24772;DHT22;12870;52.274;9.754;2023-06-01T02:35:33;11.80;99.90
24772;DHT22;12870;52.274;9.754;2023-06-01T02:37:59;11.70;99.90
24772;DHT22;12870;52.274;9.754;2023-06-01T02:40:25;11.80;99.90
24772;DHT22;12870;52.274;9.754;2023-06-01T02:42:50;11.90;99.90
24772;DHT22;12870;52.274;9.754;2023-06-01T02:45:16;12.00;99.90
24772;DHT22;12870;52.274;9.754;2023-06-01T02:47:42;12.10;99.90
24772;DHT22;12870;52.274;9.754;2023-06-01T02:50:10;12.10;99.90
24772;DHT22;12870;52.274;9.754;2023-06-01T02:52:36;12.10;99.90
24772;DHT22;12870;52.274;9.754;2023-06-01T02:55:02;12.10;99.90
24772;DHT22;12870;52.274;9.754;2023-06-01T02:57:28;12.10;99.90
24772;DHT22;12870;52.274;9.754;2023-06-01T02:59:53;12.20;99.90
24772;DHT22;12870;52.274;9.754;2023-06-01T03:02:19;12.20;99.90
24772;DHT22;12870;52.274;9.754;2023-06-01T03:04:45;12.20;99.90
24772;DHT22;12870;52.274;9.754;2023-06-01T03:07:11;12.20;99.90
24772;DHT22;12870;52.274;9.754;2023-06-01T03:09:38;12.20;99.90
24772;DHT22;12870;52.274;9.754;2023-06-01T03:12:04;12.20;99.90
24772;DHT22;12870;52.274;9.754;2023-06-01T03:14:30;12.20;99.90
24772;DHT22;12870;52.274;9.754;2023-06-01T03:16:55;12.20;99.90
24772;DHT22;12870;52.274;9.754;2023-06-01T03:19:21;12.20;99.90
24772;DHT22;12870;52.274;9.754;2023-06-01T03:21:46;12.10;99.90
24772;DHT22;12870;52.274;9.754;2023-06-01T03:24:12;12.00;99.90
24772;DHT22;12870;52.274;9.754;2023-06-01T03:26:38;12.10;99.90
24772;DHT22;12870;52.274;9.754;2023-06-01T03:29:03;12.10;99.90
24772;DHT22;12870;52.274;9.754;2023-06-01T03:33:58;12.30;99.90
24772;DHT22;12870;52.274;9.754;2023-06-01T03:36:23;12.20;99.90
24772;DHT22;12870;52.274;9.754;2023-06-01T03:38:49;12.10;99.90
24772;DHT22;12870;52.274;9.754;2023-06-01T03:41:14;12.10;99.90
24772;DHT22;12870;52.274;9.754;2023-06-01T03:43:40;11.90;99.90
24772;DHT22;12870;52.274;9.754;2023-06-01T03:46:06;11.70;99.90
24772;DHT22;12870;52.274;9.754;2023-06-01T03:48:32;11.70;99.90
24772;DHT22;12870;52.274;9.754;2023-06-01T03:50:58;11.60;99.90
24772;DHT22;12870;52.274;9.754;2023-06-01T03:53:24;11.50;99.90
24772;DHT22;12870;52.274;9.754;2023-06-01T03:55:50;11.50;99.90
24772;DHT22;12870;52.274;9.754;2023-06-01T03:58:18;11.50;99.90
24772;DHT22;12870;52.274;9.754;2023-06-01T04:00:44;11.60;99.90
24772;DHT22;12870;52.274;9.754;2023-06-01T04:03:12;11.60;99.90
24772;DHT22;12870;52.274;9.754;2023-06-01T04:05:38;11.70;99.90
24772;DHT22;12870;52.274;9.754;2023-06-01T04:08:04;11.60;99.90
24772;DHT22;12870;52.274;9.754;2023-06-01T04:10:30;11.60;99.90
24772;DHT22;12870;52.274;9.754;2023-06-01T04:12:56;11.60;99.90
24772;DHT22;12870;52.274;9.754;2023-06-01T04:15:22;11.60;99.90
24772;DHT22;12870;52.274;9.754;2023-06-01T04:17:48;11.70;99.90
24772;DHT22;12870;52.274;9.754;2023-06-01T04:20:15;11.70;99.90
24772;DHT22;12870;52.274;9.754;2023-06-01T04:22:42;11.60;99.90
24772;DHT22;12870;52.274;9.754;2023-06-01T04:25:13;11.60;99.90
24772;DHT22;12870;52.274;9.754;2023-06-01T04:27:47;11.70;99.90
24772;DHT22;12870;52.274;9.754;2023-06-01T04:30:14;11.70;99.90
24772;DHT22;12870;52.274;9.754;2023-06-01T04:32:41;11.70;99.90
24772;DHT22;12870;52.274;9.754;2023-06-01T04:35:09;11.70;99.90
24772;DHT22;12870;52.274;9.754;2023-06-01T04:37:37;11.70;99.90
24772;DHT22;12870;52.274;9.754;2023-06-01T04:40:07;11.80;99.90
24772;DHT22;12870;52.274;9.754;2023-06-01T04:42:39;11.80;99.90
24772;DHT22;12870;52.274;9.754;2023-06-01T04:45:11;11.80;99.90
24772;DHT22;12870;52.274;9.754;2023-06-01T04:47:37;11.80;99.90
24772;DHT22;12870;52.274;9.754;2023-06-01T04:50:09;11.80;99.90
24772;DHT22;12870;52.274;9.754;2023-06-01T04:52:39;11.80;99.90
24772;DHT22;12870;52.274;9.754;2023-06-01T04:55:05;11.70;99.90
24772;DHT22;12870;52.274;9.754;2023-06-01T04:57:33;11.70;99.90
24772;DHT22;12870;52.274;9.754;2023-06-01T05:00:01;11.60;99.90
24772;DHT22;12870;52.274;9.754;2023-06-01T05:02:29;11.60;99.90
24772;DHT22;12870;52.274;9.754;2023-06-01T05:04:55;11.70;99.90
24772;DHT22;12870;52.274;9.754;2023-06-01T05:07:20;11.70;99.90
24772;DHT22;12870;52.274;9.754;2023-06-01T05:09:47;11.70;99.90
24772;DHT22;12870;52.274;9.754;2023-06-01T05:12:13;11.90;99.90
24772;DHT22;12870;52.274;9.754;2023-06-01T05:14:39;11.90;99.90
24772;DHT22;12870;52.274;9.754;2023-06-01T05:17:05;11.90;99.90
24772;DHT22;12870;52.274;9.754;2023-06-01T05:19:31;11.90;99.90
24772;DHT22;12870;52.274;9.754;2023-06-01T05:21:56;12.00;99.90
24772;DHT22;12870;52.274;9.754;2023-06-01T05:24:22;12.20;99.90
24772;DHT22;12870;52.274;9.754;2023-06-01T05:26:47;12.30;99.90
24772;DHT22;12870;52.274;9.754;2023-06-01T05:29:13;12.50;99.90
24772;DHT22;12870;52.274;9.754;2023-06-01T05:31:39;12.40;99.90
24772;DHT22;12870;52.274;9.754;2023-06-01T05:34:05;12.40;99.90
24772;DHT22;12870;52.274;9.754;2023-06-01T05:36:31;12.40;99.90
24772;DHT22;12870;52.274;9.754;2023-06-01T05:38:57;12.50;99.90
24772;DHT22;12870;52.274;9.754;2023-06-01T05:41:23;12.50;99.90
24772;DHT22;12870;52.274;9.754;2023-06-01T05:43:49;12.40;99.90
24772;DHT22;12870;52.274;9.754;2023-06-01T05:46:16;12.50;99.90
24772;DHT22;12870;52.274;9.754;2023-06-01T05:48:42;12.30;99.90
24772;DHT22;12870;52.274;9.754;2023-06-01T05:51:07;12.30;99.90
24772;DHT22;12870;52.274;9.754;2023-06-01T05:53:33;12.30;99.90
24772;DHT22;12870;52.274;9.754;2023-06-01T05:55:59;12.40;99.90
24772;DHT22;12870;52.274;9.754;2023-06-01T05:58:24;12.30;99.90
24772;DHT22;12870;52.274;9.754;2023-06-01T06:00:50;12.30;99.90
24772;DHT22;12870;52.274;9.754;2023-06-01T06:03:16;12.30;99.90
24772;DHT22;12870;52.274;9.754;2023-06-01T06:05:42;12.50;99.90
24772;DHT22;12870;52.274;9.754;2023-06-01T06:08:07;12.60;99.90
24772;DHT22;12870;52.274;9.754;2023-06-01T06:10:33;12.60;99.90
24772;DHT22;12870;52.274;9.754;2023-06-01T06:12:59;12.70;99.90
24772;DHT22;12870;52.274;9.754;2023-06-01T06:15:24;12.70;99.90
24772;DHT22;12870;52.274;9.754;2023-06-01T06:17:50;12.70;99.90
24772;DHT22;12870;52.274;9.754;2023-06-01T06:20:16;12.60;99.90
24772;DHT22;12870;52.274;9.754;2023-06-01T06:22:42;12.60;99.90
24772;DHT22;12870;52.274;9.754;2023-06-01T06:25:08;12.70;99.90
24772;DHT22;12870;52.274;9.754;2023-06-01T06:27:34;12.80;99.90
24772;DHT22;12870;52.274;9.754;2023-06-01T06:30:00;13.00;99.90
24772;DHT22;12870;52.274;9.754;2023-06-01T06:32:26;13.10;99.90
24772;DHT22;12870;52.274;9.754;2023-06-01T06:34:51;13.10;99.90
24772;DHT22;12870;52.274;9.754;2023-06-01T06:37:17;13.20;99.90
24772;DHT22;12870;52.274;9.754;2023-06-01T06:39:43;13.20;99.90
24772;DHT22;12870;52.274;9.754;2023-06-01T06:42:10;13.30;99.90
24772;DHT22;12870;52.274;9.754;2023-06-01T06:44:35;13.30;99.90
24772;DHT22;12870;52.274;9.754;2023-06-01T06:47:01;13.40;99.90
24772;DHT22;12870;52.274;9.754;2023-06-01T06:49:27;13.00;99.90
24772;DHT22;12870;52.274;9.754;2023-06-01T06:51:53;12.80;99.90
24772;DHT22;12870;52.274;9.754;2023-06-01T06:54:18;12.60;99.90
24772;DHT22;12870;52.274;9.754;2023-06-01T06:56:44;12.80;99.90
24772;DHT22;12870;52.274;9.754;2023-06-01T06:59:10;13.10;99.90
24772;DHT22;12870;52.274;9.754;2023-06-01T07:01:36;13.20;99.90
24772;DHT22;12870;52.274;9.754;2023-06-01T07:04:04;13.40;99.90
24772;DHT22;12870;52.274;9.754;2023-06-01T07:06:31;13.50;99.90
24772;DHT22;12870;52.274;9.754;2023-06-01T07:08:58;13.50;99.90
24772;DHT22;12870;52.274;9.754;2023-06-01T07:11:24;13.50;99.90
24772;DHT22;12870;52.274;9.754;2023-06-01T07:13:49;13.50;99.90
24772;DHT22;12870;52.274;9.754;2023-06-01T07:16:15;13.40;99.90
24772;DHT22;12870;52.274;9.754;2023-06-01T07:18:41;13.20;99.90
24772;DHT22;12870;52.274;9.754;2023-06-01T07:21:07;12.90;99.90
24772;DHT22;12870;52.274;9.754;2023-06-01T07:23:32;13.20;99.90
24772;DHT22;12870;52.274;9.754;2023-06-01T07:25:58;13.10;99.90
24772;DHT22;12870;52.274;9.754;2023-06-01T07:28:24;12.90;99.90
24772;DHT22;12870;52.274;9.754;2023-06-01T07:30:53;12.80;99.90
24772;DHT22;12870;52.274;9.754;2023-06-01T07:33:18;12.80;99.90
24772;DHT22;12870;52.274;9.754;2023-06-01T07:35:44;12.60;99.90
24772;DHT22;12870;52.274;9.754;2023-06-01T07:38:11;12.80;99.90
24772;DHT22;12870;52.274;9.754;2023-06-01T07:40:37;12.90;99.90
24772;DHT22;12870;52.274;9.754;2023-06-01T07:43:03;13.20;99.90
24772;DHT22;12870;52.274;9.754;2023-06-01T07:45:29;13.40;99.90
24772;DHT22;12870;52.274;9.754;2023-06-01T07:47:54;13.50;99.90
24772;DHT22;12870;52.274;9.754;2023-06-01T07:50:20;13.40;99.90
24772;DHT22;12870;52.274;9.754;2023-06-01T07:52:47;13.30;99.90
24772;DHT22;12870;52.274;9.754;2023-06-01T07:55:13;13.40;99.90
24772;DHT22;12870;52.274;9.754;2023-06-01T07:57:39;13.10;99.90
24772;DHT22;12870;52.274;9.754;2023-06-01T08:00:06;13.40;99.90
24772;DHT22;12870;52.274;9.754;2023-06-01T08:02:36;13.30;99.90
24772;DHT22;12870;52.274;9.754;2023-06-01T08:05:02;13.50;99.90
24772;DHT22;12870;52.274;9.754;2023-06-01T08:07:28;13.40;99.90
24772;DHT22;12870;52.274;9.754;2023-06-01T08:09:55;13.40;99.90
24772;DHT22;12870;52.274;9.754;2023-06-01T08:12:21;13.50;99.90
24772;DHT22;12870;52.274;9.754;2023-06-01T08:14:47;13.50;99.90
24772;DHT22;12870;52.274;9.754;2023-06-01T08:17:13;13.70;99.90
24772;DHT22;12870;52.274;9.754;2023-06-01T08:19:40;13.80;99.90
24772;DHT22;12870;52.274;9.754;2023-06-01T08:22:07;14.00;99.90
24772;DHT22;12870;52.274;9.754;2023-06-01T08:24:33;14.00;99.90
24772;DHT22;12870;52.274;9.754;2023-06-01T08:26:59;13.90;99.90
24772;DHT22;12870;52.274;9.754;2023-06-01T08:29:26;13.90;99.90
24772;DHT22;12870;52.274;9.754;2023-06-01T08:31:52;13.60;99.90
24772;DHT22;12870;52.274;9.754;2023-06-01T08:34:17;13.70;99.90
24772;DHT22;12870;52.274;9.754;2023-06-01T08:36:43;13.60;99.90
24772;DHT22;12870;52.274;9.754;2023-06-01T08:39:22;13.60;99.90
24772;DHT22;12870;52.274;9.754;2023-06-01T08:44:54;13.50;99.90
24772;DHT22;12870;52.274;9.754;2023-06-01T08:47:23;13.40;99.90
24772;DHT22;12870;52.274;9.754;2023-06-01T08:49:50;13.40;99.90
24772;DHT22;12870;52.274;9.754;2023-06-01T08:52:19;13.40;99.90
24772;DHT22;12870;52.274;9.754;2023-06-01T08:54:46;13.50;99.90
24772;DHT22;12870;52.274;9.754;2023-06-01T08:57:12;13.50;99.90
24772;DHT22;12870;52.274;9.754;2023-06-01T08:59:39;13.60;99.90
24772;DHT22;12870;52.274;9.754;2023-06-01T09:02:05;13.70;99.90
24772;DHT22;12870;52.274;9.754;2023-06-01T09:04:34;13.90;99.90
24772;DHT22;12870;52.274;9.754;2023-06-01T09:07:03;14.10;99.90
24772;DHT22;12870;52.274;9.754;2023-06-01T09:09:28;13.80;99.90
24772;DHT22;12870;52.274;9.754;2023-06-01T09:14:45;13.90;99.90
24772;DHT22;12870;52.274;9.754;2023-06-01T09:17:20;13.80;99.90
24772;DHT22;12870;52.274;9.754;2023-06-01T09:19:47;13.80;99.90
24772;DHT22;12870;52.274;9.754;2023-06-01T09:22:13;13.90;99.90
24772;DHT22;12870;52.274;9.754;2023-06-01T09:24:39;13.70;99.90
24772;DHT22;12870;52.274;9.754;2023-06-01T09:27:08;13.60;99.90
24772;DHT22;12870;52.274;9.754;2023-06-01T09:29:34;13.70;99.90
24772;DHT22;12870;52.274;9.754;2023-06-01T09:32:00;13.80;99.90
24772;DHT22;12870;52.274;9.754;2023-06-01T09:34:26;13.90;99.90
24772;DHT22;12870;52.274;9.754;2023-06-01T09:36:54;14.00;99.90
24772;DHT22;12870;52.274;9.754;2023-06-01T09:39:22;14.00;99.90
24772;DHT22;12870;52.274;9.754;2023-06-01T09:41:49;14.00;99.90
24772;DHT22;12870;52.274;9.754;2023-06-01T09:44:31;14.00;99.90
24772;DHT22;12870;52.274;9.754;2023-06-01T09:47:05;14.10;99.90
24772;DHT22;12870;52.274;9.754;2023-06-01T09:49:35;14.30;99.90
24772;DHT22;12870;52.274;9.754;2023-06-01T09:54:33;14.30;99.90
24772;DHT22;12870;52.274;9.754;2023-06-01T09:57:00;14.20;99.90
24772;DHT22;12870;52.274;9.754;2023-06-01T09:59:27;14.30;99.90
24772;DHT22;12870;52.274;9.754;2023-06-01T10:01:57;14.30;99.90
24772;DHT22;12870;52.274;9.754;2023-06-01T10:04:25;14.30;99.90
24772;DHT22;12870;52.274;9.754;2023-06-01T10:06:53;14.40;99.90
24772;DHT22;12870;52.274;9.754;2023-06-01T10:09:21;14.20;99.90
24772;DHT22;12870;52.274;9.754;2023-06-01T10:11:48;14.20;99.90
24772;DHT22;12870;52.274;9.754;2023-06-01T10:14:18;14.50;99.90
24772;DHT22;12870;52.274;9.754;2023-06-01T10:16:44;14.30;99.90
24772;DHT22;12870;52.274;9.754;2023-06-01T10:19:11;14.40;99.90
24772;DHT22;12870;52.274;9.754;2023-06-01T10:21:37;14.60;99.90
24772;DHT22;12870;52.274;9.754;2023-06-01T10:24:06;14.70;99.90
24772;DHT22;12870;52.274;9.754;2023-06-01T10:26:48;15.00;99.90
24772;DHT22;12870;52.274;9.754;2023-06-01T10:29:18;15.00;99.90
24772;DHT22;12870;52.274;9.754;2023-06-01T10:31:44;14.70;99.90
24772;DHT22;12870;52.274;9.754;2023-06-01T10:34:11;14.60;99.90
24772;DHT22;12870;52.274;9.754;2023-06-01T10:39:28;14.40;99.90
24772;DHT22;12870;52.274;9.754;2023-06-01T10:41:56;14.50;99.90
24772;DHT22;12870;52.274;9.754;2023-06-01T10:52:37;15.20;99.90
24772;DHT22;12870;52.274;9.754;2023-06-01T10:57:39;15.30;99.90
24772;DHT22;12870;52.274;9.754;2023-06-01T11:13:24;14.90;99.90
24772;DHT22;12870;52.274;9.754;2023-06-01T11:21:10;14.80;99.90
24772;DHT22;12870;52.274;9.754;2023-06-01T11:23:38;15.00;99.90
24772;DHT22;12870;52.274;9.754;2023-06-01T11:26:06;14.80;99.90
24772;DHT22;12870;52.274;9.754;2023-06-01T11:28:33;15.00;99.90
24772;DHT22;12870;52.274;9.754;2023-06-01T11:31:02;15.10;99.90
24772;DHT22;12870;52.274;9.754;2023-06-01T11:33:29;15.30;99.90
24772;DHT22;12870;52.274;9.754;2023-06-01T11:36:01;15.50;99.90
24772;DHT22;12870;52.274;9.754;2023-06-01T11:38:38;15.40;99.90
24772;DHT22;12870;52.274;9.754;2023-06-01T11:41:05;15.20;99.90
24772;DHT22;12870;52.274;9.754;2023-06-01T11:43:32;15.30;99.90
24772;DHT22;12870;52.274;9.754;2023-06-01T11:46:08;15.20;99.90
24772;DHT22;12870;52.274;9.754;2023-06-01T11:48:35;15.20;99.90
24772;DHT22;12870;52.274;9.754;2023-06-01T11:51:02;15.20;99.90
24772;DHT22;12870;52.274;9.754;2023-06-01T11:53:29;15.10;99.90
24772;DHT22;12870;52.274;9.754;2023-06-01T11:55:57;15.00;99.90
24772;DHT22;12870;52.274;9.754;2023-06-01T11:58:30;15.20;99.90
24772;DHT22;12870;52.274;9.754;2023-06-01T12:00:58;15.40;99.90
24772;DHT22;12870;52.274;9.754;2023-06-01T12:03:24;15.40;99.90
24772;DHT22;12870;52.274;9.754;2023-06-01T12:05:50;15.30;99.90
24772;DHT22;12870;52.274;9.754;2023-06-01T12:08:24;15.30;99.90
24772;DHT22;12870;52.274;9.754;2023-06-01T12:10:51;15.30;99.90
24772;DHT22;12870;52.274;9.754;2023-06-01T12:13:19;15.30;99.90
24772;DHT22;12870;52.274;9.754;2023-06-01T12:15:45;15.10;99.90
24772;DHT22;12870;52.274;9.754;2023-06-01T12:18:11;15.00;99.90
24772;DHT22;12870;52.274;9.754;2023-06-01T12:20:43;15.20;99.90
24772;DHT22;12870;52.274;9.754;2023-06-01T12:23:15;15.30;99.90
24772;DHT22;12870;52.274;9.754;2023-06-01T12:25:57;15.20;99.90
24772;DHT22;12870;52.274;9.754;2023-06-01T12:28:25;15.00;99.90
24772;DHT22;12870;52.274;9.754;2023-06-01T12:31:10;15.00;99.90
24772;DHT22;12870;52.274;9.754;2023-06-01T12:33:38;15.30;99.90
24772;DHT22;12870;52.274;9.754;2023-06-01T12:36:05;15.20;99.90
24772;DHT22;12870;52.274;9.754;2023-06-01T12:38:50;15.40;99.90
24772;DHT22;12870;52.274;9.754;2023-06-01T12:41:17;15.70;99.90
24772;DHT22;12870;52.274;9.754;2023-06-01T12:43:50;15.70;99.90
24772;DHT22;12870;52.274;9.754;2023-06-01T12:46:19;15.50;99.90
24772;DHT22;12870;52.274;9.754;2023-06-01T12:48:45;15.40;99.90
24772;DHT22;12870;52.274;9.754;2023-06-01T12:51:12;15.40;99.90
24772;DHT22;12870;52.274;9.754;2023-06-01T12:53:39;15.60;99.90
24772;DHT22;12870;52.274;9.754;2023-06-01T12:56:05;15.50;99.90
24772;DHT22;12870;52.274;9.754;2023-06-01T12:58:30;15.60;99.90
24772;DHT22;12870;52.274;9.754;2023-06-01T13:00:57;15.60;99.90
24772;DHT22;12870;52.274;9.754;2023-06-01T13:03:22;15.70;99.90
24772;DHT22;12870;52.274;9.754;2023-06-01T13:05:48;15.70;99.90
24772;DHT22;12870;52.274;9.754;2023-06-01T13:08:18;15.40;99.90
24772;DHT22;12870;52.274;9.754;2023-06-01T13:10:45;15.60;99.90
24772;DHT22;12870;52.274;9.754;2023-06-01T13:13:11;15.50;99.90
24772;DHT22;12870;52.274;9.754;2023-06-01T13:15:41;15.70;99.90
24772;DHT22;12870;52.274;9.754;2023-06-01T13:18:07;15.70;99.90
24772;DHT22;12870;52.274;9.754;2023-06-01T13:20:33;15.70;99.90
24772;DHT22;12870;52.274;9.754;2023-06-01T13:22:59;16.00;99.90
24772;DHT22;12870;52.274;9.754;2023-06-01T13:25:25;16.00;99.90
24772;DHT22;12870;52.274;9.754;2023-06-01T13:27:51;16.10;99.90
24772;DHT22;12870;52.274;9.754;2023-06-01T13:30:17;16.10;99.90
24772;DHT22;12870;52.274;9.754;2023-06-01T13:32:43;16.30;99.90
24772;DHT22;12870;52.274;9.754;2023-06-01T13:35:09;16.30;99.90
24772;DHT22;12870;52.274;9.754;2023-06-01T13:37:37;16.20;99.90
24772;DHT22;12870;52.274;9.754;2023-06-01T13:40:03;16.30;99.90
24772;DHT22;12870;52.274;9.754;2023-06-01T13:42:31;15.90;99.90
24772;DHT22;12870;52.274;9.754;2023-06-01T13:44:58;15.80;99.90
24772;DHT22;12870;52.274;9.754;2023-06-01T13:47:24;16.00;99.90
24772;DHT22;12870;52.274;9.754;2023-06-01T13:49:50;16.00;99.90
24772;DHT22;12870;52.274;9.754;2023-06-01T13:52:16;16.20;99.90
24772;DHT22;12870;52.274;9.754;2023-06-01T13:54:42;16.30;99.90
24772;DHT22;12870;52.274;9.754;2023-06-01T13:57:08;16.40;99.90
24772;DHT22;12870;52.274;9.754;2023-06-01T13:59:34;16.70;99.90
24772;DHT22;12870;52.274;9.754;2023-06-01T14:02:01;16.60;99.90
24772;DHT22;12870;52.274;9.754;2023-06-01T14:04:28;16.80;99.90
24772;DHT22;12870;52.274;9.754;2023-06-01T14:06:54;17.10;99.90
24772;DHT22;12870;52.274;9.754;2023-06-01T14:09:21;16.90;99.90
24772;DHT22;12870;52.274;9.754;2023-06-01T14:11:47;16.70;99.90
24772;DHT22;12870;52.274;9.754;2023-06-01T14:14:13;16.20;99.90
24772;DHT22;12870;52.274;9.754;2023-06-01T14:16:39;16.20;99.90
24772;DHT22;12870;52.274;9.754;2023-06-01T14:19:04;16.20;99.90
24772;DHT22;12870;52.274;9.754;2023-06-01T14:21:30;16.20;99.90
24772;DHT22;12870;52.274;9.754;2023-06-01T14:23:58;16.30;99.90
24772;DHT22;12870;52.274;9.754;2023-06-01T14:26:24;16.80;99.90
24772;DHT22;12870;52.274;9.754;2023-06-01T14:28:50;17.00;99.90
24772;DHT22;12870;52.274;9.754;2023-06-01T14:31:15;17.00;99.90
24772;DHT22;12870;52.274;9.754;2023-06-01T14:33:41;17.00;99.90
24772;DHT22;12870;52.274;9.754;2023-06-01T14:36:08;16.90;99.90
24772;DHT22;12870;52.274;9.754;2023-06-01T14:38:33;16.90;99.90
24772;DHT22;12870;52.274;9.754;2023-06-01T14:40:59;16.80;99.90
24772;DHT22;12870;52.274;9.754;2023-06-01T14:43:25;16.90;99.90
24772;DHT22;12870;52.274;9.754;2023-06-01T14:45:51;16.70;99.90
24772;DHT22;12870;52.274;9.754;2023-06-01T14:48:16;16.90;99.90
24772;DHT22;12870;52.274;9.754;2023-06-01T14:50:42;16.90;99.90
24772;DHT22;12870;52.274;9.754;2023-06-01T14:53:08;16.80;99.90
24772;DHT22;12870;52.274;9.754;2023-06-01T14:55:33;16.90;99.90
24772;DHT22;12870;52.274;9.754;2023-06-01T14:57:59;16.80;99.90
24772;DHT22;12870;52.274;9.754;2023-06-01T15:00:25;16.60;99.90
24772;DHT22;12870;52.274;9.754;2023-06-01T15:02:50;16.70;99.90
24772;DHT22;12870;52.274;9.754;2023-06-01T15:05:16;16.70;99.90
24772;DHT22;12870;52.274;9.754;2023-06-01T15:07:42;16.80;99.90
24772;DHT22;12870;52.274;9.754;2023-06-01T15:10:09;17.00;99.90
24772;DHT22;12870;52.274;9.754;2023-06-01T15:12:35;17.10;99.90
24772;DHT22;12870;52.274;9.754;2023-06-01T15:15:01;16.90;99.90
24772;DHT22;12870;52.274;9.754;2023-06-01T15:17:27;16.80;99.90
24772;DHT22;12870;52.274;9.754;2023-06-01T15:19:53;16.80;99.90
24772;DHT22;12870;52.274;9.754;2023-06-01T15:22:18;17.00;99.90
24772;DHT22;12870;52.274;9.754;2023-06-01T15:24:44;16.90;99.90
24772;DHT22;12870;52.274;9.754;2023-06-01T15:27:10;16.80;99.90
24772;DHT22;12870;52.274;9.754;2023-06-01T15:29:35;16.70;99.90
24772;DHT22;12870;52.274;9.754;2023-06-01T15:32:02;17.00;99.90
24772;DHT22;12870;52.274;9.754;2023-06-01T15:34:27;17.10;99.90
24772;DHT22;12870;52.274;9.754;2023-06-01T15:36:53;16.90;99.90
24772;DHT22;12870;52.274;9.754;2023-06-01T15:39:21;16.60;99.90
24772;DHT22;12870;52.274;9.754;2023-06-01T15:41:46;16.50;99.90
24772;DHT22;12870;52.274;9.754;2023-06-01T15:44:12;16.40;99.90
24772;DHT22;12870;52.274;9.754;2023-06-01T15:46:37;16.50;99.90
24772;DHT22;12870;52.274;9.754;2023-06-01T15:49:03;16.40;99.90
24772;DHT22;12870;52.274;9.754;2023-06-01T15:51:29;16.30;99.90
24772;DHT22;12870;52.274;9.754;2023-06-01T15:53:55;16.40;99.90
24772;DHT22;12870;52.274;9.754;2023-06-01T15:56:20;16.60;99.90
24772;DHT22;12870;52.274;9.754;2023-06-01T15:58:47;16.80;99.90
24772;DHT22;12870;52.274;9.754;2023-06-01T16:01:16;17.00;99.90
24772;DHT22;12870;52.274;9.754;2023-06-01T16:03:42;16.80;99.90
24772;DHT22;12870;52.274;9.754;2023-06-01T16:06:08;16.80;99.90
24772;DHT22;12870;52.274;9.754;2023-06-01T16:08:33;16.70;99.90
24772;DHT22;12870;52.274;9.754;2023-06-01T16:10:59;16.70;99.90
24772;DHT22;12870;52.274;9.754;2023-06-01T16:13:25;16.50;99.90
24772;DHT22;12870;52.274;9.754;2023-06-01T16:15:51;16.50;99.90
24772;DHT22;12870;52.274;9.754;2023-06-01T16:18:17;16.30;99.90
24772;DHT22;12870;52.274;9.754;2023-06-01T16:20:44;16.30;99.90